sensor_id;sensor_type;location;lat;lon;timestamp;pressure;altitude;pressure_sealevel;temperature;humidity
75668;BME280;64266;48.798;44.756;2023-03-21T00:01:02;101602.00;;;9.48;47.58
75668;BME280;64266;48.798;44.756;2023-03-21T00:06:07;101572.13;;;9.12;49.04
75668;BME280;64266;48.798;44.756;2023-03-21T00:11:10;101551.63;;;8.99;48.84
75668;BME280;64266;48.798;44.756;2023-03-21T00:16:16;101577.09;;;9.00;48.16
75668;BME280;64266;48.798;44.756;2023-03-21T00:21:31;101597.19;;;8.80;48.84
75668;BME280;64266;48.798;44.756;2023-03-21T00:26:54;101597.78;;;8.61;50.01
75668;BME280;64266;48.798;44.756;2023-03-21T00:32:18;101600.47;;;8.67;50.07
75668;BME280;64266;48.798;44.756;2023-03-21T00:37:21;101582.91;;;8.45;50.23
75668;BME280;64266;48.798;44.756;2023-03-21T00:42:24;101566.78;;;8.55;48.68
75668;BME280;64266;48.798;44.756;2023-03-21T00:47:28;101567.03;;;8.31;50.10
75668;BME280;64266;48.798;44.756;2023-03-21T00:52:31;101574.94;;;8.16;50.51
75668;BME280;64266;48.798;44.756;2023-03-21T00:57:42;101591.00;;;8.14;50.84
75668;BME280;64266;48.798;44.756;2023-03-21T01:02:59;101585.25;;;8.11;50.74
75668;BME280;64266;48.798;44.756;2023-03-21T01:08:25;101588.16;;;8.16;49.74
75668;BME280;64266;48.798;44.756;2023-03-21T01:13:39;101589.50;;;7.97;51.68
75668;BME280;64266;48.798;44.756;2023-03-21T01:18:57;101580.31;;;8.08;50.23
75668;BME280;64266;48.798;44.756;2023-03-21T01:24:02;101487.56;;;7.59;49.80
75668;BME280;64266;48.798;44.756;2023-03-21T01:29:06;101486.84;;;7.50;50.81
75668;BME280;64266;48.798;44.756;2023-03-21T01:34:11;101541.59;;;8.00;49.95
75668;BME280;64266;48.798;44.756;2023-03-21T01:39:15;101601.91;;;8.26;50.59
75668;BME280;64266;48.798;44.756;2023-03-21T01:44:19;101462.53;;;7.18;50.62
75668;BME280;64266;48.798;44.756;2023-03-21T01:49:30;101533.63;;;7.56;52.18
75668;BME280;64266;48.798;44.756;2023-03-21T01:54:47;101499.13;;;7.58;50.89
75668;BME280;64266;48.798;44.756;2023-03-21T01:59:51;101435.41;;;6.86;51.55
75668;BME280;64266;48.798;44.756;2023-03-21T02:05:29;101592.22;;;7.89;51.82
75668;BME280;64266;48.798;44.756;2023-03-21T02:10:36;101590.41;;;7.90;52.06
75668;BME280;64266;48.798;44.756;2023-03-21T02:15:46;101555.13;;;7.83;51.29
75668;BME280;64266;48.798;44.756;2023-03-21T02:38:14;101577.09;;;7.83;51.37
75668;BME280;64266;48.798;44.756;2023-03-21T02:54:14;101574.09;;;7.86;50.78
75668;BME280;64266;48.798;44.756;2023-03-21T02:59:37;101574.72;;;7.88;51.06
75668;BME280;64266;48.798;44.756;2023-03-21T03:05:00;101580.88;;;7.43;53.87
75668;BME280;64266;48.798;44.756;2023-03-21T03:11:11;101595.91;;;7.66;52.44
75668;BME280;64266;48.798;44.756;2023-03-21T03:16:02;101596.13;;;7.56;51.42
75668;BME280;64266;48.798;44.756;2023-03-21T03:21:31;101599.25;;;7.59;52.96
75668;BME280;64266;48.798;44.756;2023-03-21T03:26:42;101582.63;;;7.51;53.27
75668;BME280;64266;48.798;44.756;2023-03-21T03:31:56;101592.66;;;7.78;53.29
75668;BME280;64266;48.798;44.756;2023-03-21T03:37:09;101581.06;;;7.64;53.46
75668;BME280;64266;48.798;44.756;2023-03-21T03:42:21;101494.28;;;7.01;53.04
75668;BME280;64266;48.798;44.756;2023-03-21T03:47:48;101587.56;;;7.54;54.30
75668;BME280;64266;48.798;44.756;2023-03-21T03:53:07;101586.06;;;7.37;53.87
75668;BME280;64266;48.798;44.756;2023-03-21T03:58:25;101586.63;;;7.24;54.60
75668;BME280;64266;48.798;44.756;2023-03-21T04:03:48;101510.41;;;6.84;54.99
75668;BME280;64266;48.798;44.756;2023-03-21T04:09:02;101545.31;;;7.17;54.72
75668;BME280;64266;48.798;44.756;2023-03-21T04:14:23;101540.78;;;7.25;55.46
75668;BME280;64266;48.798;44.756;2023-03-21T04:19:34;101575.09;;;7.85;54.69
75668;BME280;64266;48.798;44.756;2023-03-21T04:24:39;101552.06;;;7.94;53.89
75668;BME280;64266;48.798;44.756;2023-03-21T04:29:43;101482.19;;;7.52;53.52
75668;BME280;64266;48.798;44.756;2023-03-21T04:34:59;101530.06;;;8.45;52.40
75668;BME280;64266;48.798;44.756;2023-03-21T04:40:05;101522.34;;;8.65;52.29
75668;BME280;64266;48.798;44.756;2023-03-21T04:45:09;101490.78;;;8.78;50.82
75668;BME280;64266;48.798;44.756;2023-03-21T04:50:13;101528.00;;;9.40;50.26
75668;BME280;64266;48.798;44.756;2023-03-21T04:55:17;101508.78;;;9.53;49.65
75668;BME280;64266;48.798;44.756;2023-03-21T05:00:23;101585.16;;;10.32;48.98
75668;BME280;64266;48.798;44.756;2023-03-21T05:05:27;101552.31;;;10.81;48.14
75668;BME280;64266;48.798;44.756;2023-03-21T05:10:30;101571.88;;;11.60;45.90
75668;BME280;64266;48.798;44.756;2023-03-21T05:15:34;101542.69;;;11.93;45.80
75668;BME280;64266;48.798;44.756;2023-03-21T05:20:44;101561.00;;;12.85;43.46
75668;BME280;64266;48.798;44.756;2023-03-21T05:25:53;101546.34;;;13.07;42.59
75668;BME280;64266;48.798;44.756;2023-03-21T05:31:14;101537.16;;;13.34;42.21
75668;BME280;64266;48.798;44.756;2023-03-21T05:36:22;101552.59;;;13.75;42.83
75668;BME280;64266;48.798;44.756;2023-03-21T05:41:28;101561.13;;;14.33;40.97
75668;BME280;64266;48.798;44.756;2023-03-21T05:46:35;101573.19;;;15.02;39.31
75668;BME280;64266;48.798;44.756;2023-03-21T05:51:39;101567.25;;;15.71;38.52
75668;BME280;64266;48.798;44.756;2023-03-21T05:56:42;101551.06;;;16.24;37.28
75668;BME280;64266;48.798;44.756;2023-03-21T06:01:52;101548.13;;;16.89;36.50
75668;BME280;64266;48.798;44.756;2023-03-21T06:06:56;101542.19;;;17.48;36.06
75668;BME280;64266;48.798;44.756;2023-03-21T06:12:00;101556.97;;;18.39;33.83
75668;BME280;64266;48.798;44.756;2023-03-21T06:17:10;101519.41;;;18.61;33.19
75668;BME280;64266;48.798;44.756;2023-03-21T06:22:22;101500.44;;;18.72;32.57
75668;BME280;64266;48.798;44.756;2023-03-21T06:27:27;101532.13;;;18.97;32.99
75668;BME280;64266;48.798;44.756;2023-03-21T06:32:30;101530.31;;;18.76;33.58
75668;BME280;64266;48.798;44.756;2023-03-21T06:37:43;101502.31;;;18.72;34.11
75668;BME280;64266;48.798;44.756;2023-03-21T06:42:47;101508.13;;;19.44;32.44
75668;BME280;64266;48.798;44.756;2023-03-21T06:47:55;101493.44;;;19.62;32.62
75668;BME280;64266;48.798;44.756;2023-03-21T06:53:18;101505.53;;;19.59;32.22
75668;BME280;64266;48.798;44.756;2023-03-21T06:58:52;101503.69;;;19.33;32.53
75668;BME280;64266;48.798;44.756;2023-03-21T07:04:33;101502.06;;;19.00;32.52
75668;BME280;64266;48.798;44.756;2023-03-21T07:09:39;101469.00;;;19.05;32.56
75668;BME280;64266;48.798;44.756;2023-03-21T07:14:45;101502.28;;;18.99;32.52
75668;BME280;64266;48.798;44.756;2023-03-21T07:19:48;101494.69;;;18.90;32.67
75668;BME280;64266;48.798;44.756;2023-03-21T07:24:53;101484.09;;;19.06;32.75
75668;BME280;64266;48.798;44.756;2023-03-21T07:30:12;101445.78;;;18.88;33.35
75668;BME280;64266;48.798;44.756;2023-03-21T07:35:16;101471.19;;;18.76;33.37
75668;BME280;64266;48.798;44.756;2023-03-21T07:40:21;101476.31;;;18.34;33.85
75668;BME280;64266;48.798;44.756;2023-03-21T07:45:24;101503.84;;;18.46;34.57
75668;BME280;64266;48.798;44.756;2023-03-21T07:50:28;101476.81;;;18.09;34.57
75668;BME280;64266;48.798;44.756;2023-03-21T07:55:34;101436.00;;;17.47;35.75
75668;BME280;64266;48.798;44.756;2023-03-21T08:00:37;101495.63;;;17.38;36.93
75668;BME280;64266;48.798;44.756;2023-03-21T08:05:40;101462.06;;;16.85;36.54
75668;BME280;64266;48.798;44.756;2023-03-21T08:10:43;101482.81;;;16.78;35.84
75668;BME280;64266;48.798;44.756;2023-03-21T08:15:46;101458.19;;;16.53;34.89
75668;BME280;64266;48.798;44.756;2023-03-21T08:20:52;101471.09;;;16.67;35.81
75668;BME280;64266;48.798;44.756;2023-03-21T08:25:56;101466.59;;;16.85;35.63
75668;BME280;64266;48.798;44.756;2023-03-21T08:31:09;101367.31;;;16.46;36.79
75668;BME280;64266;48.798;44.756;2023-03-21T08:36:22;101421.38;;;16.88;34.35
75668;BME280;64266;48.798;44.756;2023-03-21T08:41:58;101432.56;;;17.02;32.90
75668;BME280;64266;48.798;44.756;2023-03-21T08:47:12;101465.16;;;17.27;33.45
75668;BME280;64266;48.798;44.756;2023-03-21T08:52:18;101393.69;;;16.99;33.23
75668;BME280;64266;48.798;44.756;2023-03-21T08:57:24;101405.16;;;16.95;33.73
75668;BME280;64266;48.798;44.756;2023-03-21T09:02:31;101398.00;;;17.00;33.00
75668;BME280;64266;48.798;44.756;2023-03-21T09:07:41;101400.41;;;17.02;33.48
75668;BME280;64266;48.798;44.756;2023-03-21T09:12:45;101415.91;;;17.33;33.00
75668;BME280;64266;48.798;44.756;2023-03-21T09:17:53;101426.97;;;17.37;33.25
75668;BME280;64266;48.798;44.756;2023-03-21T09:23:13;101407.66;;;17.18;33.28
75668;BME280;64266;48.798;44.756;2023-03-21T09:28:18;101350.50;;;16.62;33.16
75668;BME280;64266;48.798;44.756;2023-03-21T09:33:21;101400.03;;;17.10;33.71
75668;BME280;64266;48.798;44.756;2023-03-21T09:38:27;101404.81;;;17.24;32.73
75668;BME280;64266;48.798;44.756;2023-03-21T09:49:06;101398.34;;;17.42;33.82
75668;BME280;64266;48.798;44.756;2023-03-21T09:54:22;101378.22;;;17.56;32.31
75668;BME280;64266;48.798;44.756;2023-03-21T09:59:31;101386.06;;;17.63;32.35
75668;BME280;64266;48.798;44.756;2023-03-21T10:04:41;101380.28;;;17.71;31.93
75668;BME280;64266;48.798;44.756;2023-03-21T10:09:45;101385.00;;;17.64;32.36
75668;BME280;64266;48.798;44.756;2023-03-21T10:14:54;101374.78;;;17.82;32.58
75668;BME280;64266;48.798;44.756;2023-03-21T10:25:16;101324.19;;;17.69;31.85
75668;BME280;64266;48.798;44.756;2023-03-21T10:35:29;101316.25;;;17.79;30.81
75668;BME280;64266;48.798;44.756;2023-03-21T10:40:41;101334.50;;;18.04;30.41
75668;BME280;64266;48.798;44.756;2023-03-21T10:45:55;101291.53;;;17.99;30.61
75668;BME280;64266;48.798;44.756;2023-03-21T10:50:58;101324.78;;;18.25;29.90
75668;BME280;64266;48.798;44.756;2023-03-21T10:56:06;101310.34;;;18.04;30.14
75668;BME280;64266;48.798;44.756;2023-03-21T11:01:15;101342.91;;;18.13;29.66
75668;BME280;64266;48.798;44.756;2023-03-21T11:06:30;101321.91;;;18.05;30.21
75668;BME280;64266;48.798;44.756;2023-03-21T11:11:49;101291.09;;;17.85;29.99
75668;BME280;64266;48.798;44.756;2023-03-21T11:16:53;101323.13;;;18.19;30.12
75668;BME280;64266;48.798;44.756;2023-03-21T11:22:12;101273.13;;;17.86;29.23
75668;BME280;64266;48.798;44.756;2023-03-21T11:27:26;101323.50;;;18.06;28.96
75668;BME280;64266;48.798;44.756;2023-03-21T11:32:36;101329.56;;;18.18;29.31
75668;BME280;64266;48.798;44.756;2023-03-21T11:37:44;101296.47;;;18.12;28.77
75668;BME280;64266;48.798;44.756;2023-03-21T11:43:01;101296.66;;;18.06;28.51
75668;BME280;64266;48.798;44.756;2023-03-21T11:48:17;101291.91;;;18.13;31.73
75668;BME280;64266;48.798;44.756;2023-03-21T12:15:25;101283.06;;;18.44;30.29
75668;BME280;64266;48.798;44.756;2023-03-21T12:41:53;101285.47;;;18.09;32.61
75668;BME280;64266;48.798;44.756;2023-03-21T12:47:12;101292.31;;;18.00;32.22
75668;BME280;64266;48.798;44.756;2023-03-21T12:52:21;101278.50;;;17.86;32.63
75668;BME280;64266;48.798;44.756;2023-03-21T12:57:49;101282.38;;;17.73;33.55
75668;BME280;64266;48.798;44.756;2023-03-21T13:03:02;101280.72;;;17.67;33.45
75668;BME280;64266;48.798;44.756;2023-03-21T13:19:09;101265.41;;;17.46;34.13
75668;BME280;64266;48.798;44.756;2023-03-21T13:24:31;101264.47;;;17.35;34.25
75668;BME280;64266;48.798;44.756;2023-03-21T13:29:46;101256.06;;;17.27;33.75
75668;BME280;64266;48.798;44.756;2023-03-21T13:34:58;101249.06;;;17.26;33.81
75668;BME280;64266;48.798;44.756;2023-03-21T13:40:07;101262.88;;;17.34;32.71
75668;BME280;64266;48.798;44.756;2023-03-21T13:45:44;101224.75;;;17.11;31.98
75668;BME280;64266;48.798;44.756;2023-03-21T13:50:52;101256.19;;;17.37;31.94
75668;BME280;64266;48.798;44.756;2023-03-21T14:01:35;101247.28;;;17.31;32.02
75668;BME280;64266;48.798;44.756;2023-03-21T14:12:00;101237.78;;;17.24;28.93
75668;BME280;64266;48.798;44.756;2023-03-21T14:17:30;101253.50;;;17.37;29.02
75668;BME280;64266;48.798;44.756;2023-03-21T14:22:33;101248.78;;;17.22;28.70
75668;BME280;64266;48.798;44.756;2023-03-21T14:27:36;101252.56;;;17.26;28.52
75668;BME280;64266;48.798;44.756;2023-03-21T14:32:40;101265.16;;;17.26;28.50
75668;BME280;64266;48.798;44.756;2023-03-21T14:37:44;101273.50;;;17.29;29.14
75668;BME280;64266;48.798;44.756;2023-03-21T14:42:49;101274.50;;;17.23;29.87
75668;BME280;64266;48.798;44.756;2023-03-21T14:48:07;101258.22;;;17.08;30.32
75668;BME280;64266;48.798;44.756;2023-03-21T14:53:18;101251.44;;;17.01;30.71
75668;BME280;64266;48.798;44.756;2023-03-21T14:58:22;101254.28;;;16.94;30.27
75668;BME280;64266;48.798;44.756;2023-03-21T15:03:25;101265.56;;;16.96;30.66
75668;BME280;64266;48.798;44.756;2023-03-21T15:08:29;101270.75;;;16.86;30.71
75668;BME280;64266;48.798;44.756;2023-03-21T15:13:44;101257.16;;;16.71;30.54
75668;BME280;64266;48.798;44.756;2023-03-21T15:18:48;101291.00;;;16.77;31.07
75668;BME280;64266;48.798;44.756;2023-03-21T15:23:55;101292.72;;;16.66;31.17
75668;BME280;64266;48.798;44.756;2023-03-21T15:28:59;101294.75;;;16.59;31.20
75668;BME280;64266;48.798;44.756;2023-03-21T15:34:04;101278.88;;;16.41;31.38
75668;BME280;64266;48.798;44.756;2023-03-21T15:39:12;101302.25;;;16.46;31.68
75668;BME280;64266;48.798;44.756;2023-03-21T15:44:20;101295.34;;;16.33;32.16
75668;BME280;64266;48.798;44.756;2023-03-21T15:49:31;101293.06;;;16.25;32.33
75668;BME280;64266;48.798;44.756;2023-03-21T15:54:41;101285.66;;;16.15;32.49
75668;BME280;64266;48.798;44.756;2023-03-21T15:59:44;101300.34;;;16.13;32.56
75668;BME280;64266;48.798;44.756;2023-03-21T16:05:13;101312.09;;;16.12;32.67
75668;BME280;64266;48.798;44.756;2023-03-21T16:10:32;101267.69;;;15.83;33.00
75668;BME280;64266;48.798;44.756;2023-03-21T16:15:34;101301.22;;;16.02;33.11
75668;BME280;64266;48.798;44.756;2023-03-21T16:20:45;101305.81;;;15.90;32.92
75668;BME280;64266;48.798;44.756;2023-03-21T16:25:47;101296.41;;;15.76;32.98
75668;BME280;64266;48.798;44.756;2023-03-21T16:30:56;101312.00;;;15.79;34.18
75668;BME280;64266;48.798;44.756;2023-03-21T16:35:59;101308.88;;;15.70;33.89
75668;BME280;64266;48.798;44.756;2023-03-21T16:41:02;101307.28;;;15.57;35.18
75668;BME280;64266;48.798;44.756;2023-03-21T16:46:05;101256.94;;;15.14;34.30
75668;BME280;64266;48.798;44.756;2023-03-21T16:51:19;101276.19;;;15.16;35.19
75668;BME280;64266;48.798;44.756;2023-03-21T16:56:29;101321.69;;;15.45;35.23
75668;BME280;64266;48.798;44.756;2023-03-21T17:01:34;101312.06;;;15.32;35.16
75668;BME280;64266;48.798;44.756;2023-03-21T17:06:43;101312.88;;;15.33;35.96
75668;BME280;64266;48.798;44.756;2023-03-21T17:11:46;101293.50;;;15.14;35.30
75668;BME280;64266;48.798;44.756;2023-03-21T17:16:48;101312.53;;;15.29;36.25
75668;BME280;64266;48.798;44.756;2023-03-21T17:21:51;101324.75;;;15.37;35.75
75668;BME280;64266;48.798;44.756;2023-03-21T17:26:53;101316.28;;;15.28;35.29
75668;BME280;64266;48.798;44.756;2023-03-21T17:31:56;101321.63;;;15.28;35.75
75668;BME280;64266;48.798;44.756;2023-03-21T17:36:58;101303.84;;;15.10;37.33
75668;BME280;64266;48.798;44.756;2023-03-21T17:42:01;101288.41;;;15.12;36.71
75668;BME280;64266;48.798;44.756;2023-03-21T17:47:04;101309.41;;;15.20;37.58
75668;BME280;64266;48.798;44.756;2023-03-21T17:52:07;101300.06;;;14.95;37.47
75668;BME280;64266;48.798;44.756;2023-03-21T17:57:10;101327.44;;;15.13;37.83
75668;BME280;64266;48.798;44.756;2023-03-21T18:02:12;101330.34;;;15.12;37.36
75668;BME280;64266;48.798;44.756;2023-03-21T18:07:15;101324.75;;;15.13;37.23
75668;BME280;64266;48.798;44.756;2023-03-21T18:12:38;101326.41;;;15.03;38.58
75668;BME280;64266;48.798;44.756;2023-03-21T18:17:42;101301.56;;;14.79;37.84
75668;BME280;64266;48.798;44.756;2023-03-21T18:22:44;101324.41;;;14.87;38.57
75668;BME280;64266;48.798;44.756;2023-03-21T18:27:47;101319.66;;;14.89;38.30
75668;BME280;64266;48.798;44.756;2023-03-21T18:33:10;101315.84;;;14.85;38.40
75668;BME280;64266;48.798;44.756;2023-03-21T18:38:13;101307.69;;;14.80;38.47
75668;BME280;64266;48.798;44.756;2023-03-21T18:43:15;101345.09;;;14.91;39.32
75668;BME280;64266;48.798;44.756;2023-03-21T18:48:38;101339.03;;;14.96;38.93
75668;BME280;64266;48.798;44.756;2023-03-21T18:53:40;101333.69;;;14.96;38.67
75668;BME280;64266;48.798;44.756;2023-03-21T18:58:43;101323.47;;;14.93;38.23
75668;BME280;64266;48.798;44.756;2023-03-21T19:03:46;101334.28;;;14.86;38.12
75668;BME280;64266;48.798;44.756;2023-03-21T19:09:08;101319.44;;;14.79;37.41
75668;BME280;64266;48.798;44.756;2023-03-21T19:14:12;101313.47;;;14.77;37.65
75668;BME280;64266;48.798;44.756;2023-03-21T19:19:15;101304.69;;;14.76;37.38
75668;BME280;64266;48.798;44.756;2023-03-21T19:24:19;101322.91;;;14.91;37.68
75668;BME280;64266;48.798;44.756;2023-03-21T19:29:29;101306.44;;;14.82;37.73
75668;BME280;64266;48.798;44.756;2023-03-21T19:34:32;101302.94;;;14.82;37.64
75668;BME280;64266;48.798;44.756;2023-03-21T19:39:35;101315.13;;;14.78;37.14
75668;BME280;64266;48.798;44.756;2023-03-21T19:44:37;101295.59;;;14.65;37.96
75668;BME280;64266;48.798;44.756;2023-03-21T19:49:39;101299.34;;;14.76;38.01
75668;BME280;64266;48.798;44.756;2023-03-21T19:55:04;101303.16;;;14.80;38.04
75668;BME280;64266;48.798;44.756;2023-03-21T20:00:07;101310.03;;;14.88;38.00
75668;BME280;64266;48.798;44.756;2023-03-21T20:05:14;101314.66;;;14.92;37.75
75668;BME280;64266;48.798;44.756;2023-03-21T20:10:18;101308.06;;;14.95;37.80
75668;BME280;64266;48.798;44.756;2023-03-21T20:15:21;101317.78;;;14.89;37.26
75668;BME280;64266;48.798;44.756;2023-03-21T20:20:29;101301.44;;;14.86;36.86
75668;BME280;64266;48.798;44.756;2023-03-21T20:25:37;101304.78;;;14.81;37.30
75668;BME280;64266;48.798;44.756;2023-03-21T20:30:51;101312.34;;;14.73;36.84
75668;BME280;64266;48.798;44.756;2023-03-21T20:35:57;101263.56;;;14.54;37.40
75668;BME280;64266;48.798;44.756;2023-03-21T20:41:21;101308.75;;;14.79;37.26
75668;BME280;64266;48.798;44.756;2023-03-21T20:46:24;101281.69;;;14.63;37.26
75668;BME280;64266;48.798;44.756;2023-03-21T20:51:27;101288.63;;;14.64;37.56
75668;BME280;64266;48.798;44.756;2023-03-21T20:56:50;101293.28;;;14.57;38.09
75668;BME280;64266;48.798;44.756;2023-03-21T21:01:55;101270.75;;;14.42;38.00
75668;BME280;64266;48.798;44.756;2023-03-21T21:06:58;101279.56;;;14.42;37.97
75668;BME280;64266;48.798;44.756;2023-03-21T21:12:01;101283.31;;;14.23;38.07
75668;BME280;64266;48.798;44.756;2023-03-21T21:17:08;101285.06;;;14.29;38.28
75668;BME280;64266;48.798;44.756;2023-03-21T21:22:32;101293.09;;;14.29;38.63
75668;BME280;64266;48.798;44.756;2023-03-21T21:27:36;101285.41;;;14.21;38.95
75668;BME280;64266;48.798;44.756;2023-03-21T21:32:39;101277.75;;;14.25;38.42
75668;BME280;64266;48.798;44.756;2023-03-21T21:37:43;101294.34;;;14.27;39.37
75668;BME280;64266;48.798;44.756;2023-03-21T21:42:46;101289.47;;;14.24;38.67
75668;BME280;64266;48.798;44.756;2023-03-21T21:47:49;101266.94;;;14.08;38.42
75668;BME280;64266;48.798;44.756;2023-03-21T21:52:52;101294.91;;;14.17;37.88
75668;BME280;64266;48.798;44.756;2023-03-21T21:57:55;101286.72;;;14.00;38.45
75668;BME280;64266;48.798;44.756;2023-03-21T22:03:02;101273.59;;;13.69;38.42
75668;BME280;64266;48.798;44.756;2023-03-21T22:08:06;101271.72;;;13.58;38.28
75668;BME280;64266;48.798;44.756;2023-03-21T22:13:12;101282.53;;;13.45;39.58
75668;BME280;64266;48.798;44.756;2023-03-21T22:18:16;101280.25;;;13.30;40.12
75668;BME280;64266;48.798;44.756;2023-03-21T22:23:18;101299.41;;;13.39;40.23
75668;BME280;64266;48.798;44.756;2023-03-21T22:28:21;101291.78;;;13.24;39.98
75668;BME280;64266;48.798;44.756;2023-03-21T22:33:26;101292.44;;;13.20;40.58
75668;BME280;64266;48.798;44.756;2023-03-21T22:38:29;101267.38;;;13.09;40.13
75668;BME280;64266;48.798;44.756;2023-03-21T22:43:33;101295.25;;;13.25;40.67
75668;BME280;64266;48.798;44.756;2023-03-21T22:48:36;101286.91;;;13.21;41.32
75668;BME280;64266;48.798;44.756;2023-03-21T22:53:40;101280.81;;;13.32;41.32
75668;BME280;64266;48.798;44.756;2023-03-21T22:58:43;101291.47;;;13.50;41.37
75668;BME280;64266;48.798;44.756;2023-03-21T23:03:47;101289.19;;;13.54;41.51
75668;BME280;64266;48.798;44.756;2023-03-21T23:08:50;101279.56;;;13.53;41.62
75668;BME280;64266;48.798;44.756;2023-03-21T23:13:52;101261.94;;;13.52;42.12
75668;BME280;64266;48.798;44.756;2023-03-21T23:19:08;101281.06;;;13.79;42.09
75668;BME280;64266;48.798;44.756;2023-03-21T23:24:14;101282.38;;;13.88;41.51
75668;BME280;64266;48.798;44.756;2023-03-21T23:29:17;101242.91;;;13.67;41.74
75668;BME280;64266;48.798;44.756;2023-03-21T23:34:19;101278.69;;;13.89;42.52
75668;BME280;64266;48.798;44.756;2023-03-21T23:39:22;101274.63;;;13.86;42.57
75668;BME280;64266;48.798;44.756;2023-03-21T23:44:25;101254.63;;;13.66;42.63
75668;BME280;64266;48.798;44.756;2023-03-21T23:49:29;101247.78;;;13.70;42.10
75668;BME280;64266;48.798;44.756;2023-03-21T23:54:35;101280.63;;;13.82;43.03
75668;BME280;64266;48.798;44.756;2023-03-21T23:59:37;101272.50;;;13.77;43.48
